Date,TemperatureHighF,TemperatureAvgF,TemperatureLowF,DewpointHighF,DewpointAvgF,DewpointLowF,HumidityHigh,HumidityAvg,HumidityLow,PressureMaxIn,PressureMinIn,WindSpeedMaxMPH,WindSpeedAvgMPH,GustSpeedMaxMPH,PrecipitationSumIn
2013-1-1,36.9,31.6,21.1,24.4,16.0,4.3,67,53,40,29.90,29.66,22,5,34,0.00
2013-1-2,29.1,21.0,13.5,12.5,6.1,0.3,62,52,44,30.05,29.86,14,3,26,0.01
2013-1-3,25.8,15.4,5.4,9.3,-2.5,-8.2,57,46,24,30.09,29.95,14,2,25,0.00
2013-1-4,38.3,30.3,21.0,21.7,17.6,9.3,69,59,47,29.95,29.78,14,1,25,0.00
2013-1-5,41.2,32.6,25.6,21.4,18.7,16.4,73,57,38,30.22,29.82,10,1,29,0.00
2013-1-6,43.8,33.6,26.0,28.4,24.3,18.3,87,69,50,30.18,29.90,7,0,21,0.01
2013-1-7,38.5,33.0,26.4,27.6,24.6,19.7,87,72,47,30.37,29.92,6,0,17,0.00
2013-1-8,47.3,37.1,26.6,27.8,26.1,23.4,90,66,43,30.33,30.22,7,1,26,0.00
2013-1-9,44.2,37.2,26.1,35.0,28.3,22.5,88,71,53,30.35,29.96,7,1,21,0.00
2013-1-10,46.5,42.4,39.9,26.4,21.1,19.1,52,43,34,30.43,30.01,20,8,142,0.01
2013-1-11,40.9,39.6,37.0,35.1,26.3,20.1,92,61,43,30.42,30.19,6,3,141,0.12
2013-1-12,43.5,41.3,37.2,41.9,39.8,35.1,96,95,92,30.20,30.09,0,0,4,0.03
2013-1-13,51.9,46.8,42.3,49.1,45.3,41.2,98,95,90,30.12,29.96,7,1,21,0.01
2013-1-14,61.2,52.1,42.8,51.9,42.0,25.2,95,71,33,30.22,29.83,13,2,24,0.00
2013-1-15,42.8,38.7,34.9,26.6,24.2,22.0,64,56,51,30.27,30.18,6,0,12,0.00
2013-1-16,36.6,33.4,31.6,32.2,29.9,23.0,95,88,59,30.21,29.78,3,0,8,0.16
2013-1-17,41.5,35.2,30.4,31.9,26.0,12.5,95,71,47,30.05,29.80,13,2,24,0.19
2013-1-18,30.4,22.6,18.6,13.7,-2.7,-10.0,50,33,22,30.41,30.01,17,4,26,0.00
2013-1-19,48.8,37.3,21.8,31.8,21.6,4.2,72,54,37,30.36,29.86,13,2,30,0.00
2013-1-20,54.2,42.3,29.0,33.0,23.6,5.3,70,49,27,29.89,29.50,20,6,35,0.02
2013-1-21,29.0,25.2,21.0,21.7,7.6,0.6,87,49,32,30.06,29.73,16,2,24,0.00
2013-1-22,24.5,20.3,13.4,20.9,5.3,-8.2,87,55,27,30.03,29.70,17,5,25,0.00
2013-1-23,15.6,11.1,7.2,-1.5,-10.4,-15.4,58,38,26,30.10,30.02,21,4,34,0.00
2013-1-24,19.2,11.0,3.4,-11.1,-13.5,-16.6,45,32,21,30.18,30.01,15,7,35,0.00
2013-1-25,24.1,16.0,7.9,12.4,-9.4,-16.6,82,33,19,30.26,30.01,15,3,22,0.00
2013-1-26,24.1,17.2,11.9,11.9,0.8,-11.1,83,52,26,30.18,29.95,17,4,26,0.00
2013-1-27,29.8,20.6,11.9,0.7,-2.5,-9.3,57,38,21,30.41,30.17,16,6,25,0.00
2013-1-28,31.0,24.6,17.3,26.4,10.5,-1.4,91,59,27,30.40,29.96,2,0,12,0.00
2013-1-29,33.8,30.7,26.6,32.0,27.8,24.1,93,89,83,30.16,29.96,0,0,4,0.09
2013-1-30,60.1,49.8,33.8,56.4,47.3,32.0,96,91,81,30.12,29.45,10,3,29,0.13
2013-1-31,61.4,48.2,31.6,57.7,35.6,12.5,91,64,34,29.56,28.96,17,7,43,0.33
2013-2-1,32.0,28.3,22.2,16.0,6.0,0.3,53,39,27,30.05,29.56,15,5,29,0.00
2013-2-2,30.4,24.2,17.2,11.7,4.6,-1.7,53,43,30,30.22,30.01,9,1,23,0.00
2013-2-3,27.0,24.4,22.1,21.1,18.9,9.5,84,79,50,30.01,29.68,5,0,13,0.00
2013-2-4,28.8,23.9,19.7,19.1,9.1,2.2,84,55,33,29.91,29.67,17,4,32,0.00
2013-2-5,27.2,24.5,21.3,22.5,12.5,6.9,88,61,47,29.99,29.89,5,0,10,0.00
2013-2-6,38.0,30.0,25.6,25.4,17.7,0.5,90,64,31,30.25,29.88,18,2,26,0.06
2013-2-7,29.0,24.3,18.6,15.4,2.2,-4.6,63,39,26,30.48,30.25,10,2,21,0.00
2013-2-8,32.8,30.3,23.8,30.5,25.8,14.8,96,84,63,30.43,29.59,8,1,16,0.02
2013-2-9,21.9,17.9,13.8,19.7,14.9,9.9,91,88,84,30.16,29.47,16,7,26,0.00
2013-2-10,33.1,21.2,12.9,26.0,15.2,7.9,84,77,67,30.36,30.16,15,3,24,0.06
2013-2-11,44.5,34.5,19.1,44.2,28.9,14.1,100,82,37,30.29,29.56,3,0,12,0.39
2013-2-12,44.1,38.9,32.9,41.9,27.6,23.5,95,65,46,29.85,29.57,15,2,29,0.01
2013-2-13,44.1,35.0,30.1,26.9,22.9,20.6,79,62,42,29.84,29.64,8,0,13,0.00
2013-2-14,43.5,36.1,31.5,28.8,21.6,16.7,85,57,35,29.95,29.66,9,0,15,0.00
2013-2-15,49.9,38.8,29.4,34.5,30.6,22.4,92,74,50,29.96,29.87,5,1,21,0.00
2013-2-16,34.9,33.6,31.7,32.8,28.5,18.6,93,82,55,29.90,29.64,6,1,16,0.04
2013-2-17,31.7,21.7,17.3,20.8,10.4,-2.9,88,64,35,29.64,29.33,29,13,51,0.00
2013-2-18,31.1,22.5,14.8,-0.3,-2.3,-5.3,47,35,21,30.12,29.64,23,9,36,0.00
2013-2-19,47.1,37.5,23.8,41.9,22.7,-1.6,95,57,32,30.13,29.55,7,1,17,0.45
2013-2-20,42.5,32.4,26.0,40.6,18.1,6.4,95,58,35,29.75,29.50,17,5,30,0.00
2013-2-21,32.1,27.6,24.6,14.3,10.8,7.1,59,49,37,30.12,29.75,20,7,31,0.00
2013-2-22,37.6,31.1,25.7,24.0,20.3,14.0,74,64,56,30.33,30.12,15,2,22,0.00
2013-2-23,39.2,34.6,30.9,33.4,27.9,23.3,93,77,64,30.29,29.87,0,0,6,0.19
2013-2-24,37.8,34.1,30.6,36.8,32.7,29.3,96,95,93,29.87,29.64,9,2,15,0.70
2013-2-25,38.6,33.7,29.5,29.4,28.3,26.9,95,81,64,30.21,29.84,2,0,7,0.12
2013-2-26,43.9,35.6,27.6,32.1,27.6,24.7,92,74,50,30.30,30.12,0,0,4,0.04
2013-2-27,41.6,39.8,37.6,40.3,37.9,31.3,96,93,79,30.12,29.52,5,1,12,1.03
2013-2-28,45.5,38.1,33.7,37.8,34.6,32.6,96,88,69,29.62,29.49,7,0,13,0.00
2013-3-1,40.5,37.9,35.6,34.7,28.9,25.6,89,70,57,29.64,29.49,8,1,22,0.01
2013-3-2,42.8,37.5,32.7,27.7,25.3,23.2,71,61,51,29.64,29.59,7,1,17,0.00
2013-3-3,41.8,35.8,32.4,30.5,26.6,23.1,89,70,57,29.61,29.52,6,1,16,0.00
2013-3-4,38.8,34.0,29.7,28.1,22.1,18.9,83,62,46,29.70,29.54,17,8,30,0.00
2013-3-5,43.0,36.4,31.6,32.6,26.6,20.4,87,68,54,30.03,29.70,13,3,23,0.00
2013-3-6,39.2,37.4,35.5,34.8,32.3,28.4,89,82,66,30.07,29.99,10,2,22,0.06
2013-3-7,36.6,32.5,30.4,32.1,30.5,28.7,96,92,74,30.00,29.93,12,6,23,0.16
2013-3-8,39.5,32.4,29.1,34.6,28.9,22.8,97,88,52,30.10,29.88,15,5,23,0.10
2013-3-9,39.2,34.5,29.4,30.2,26.2,21.2,92,72,55,30.31,30.10,3,0,13,0.40
2013-3-10,40.9,34.1,27.6,31.7,28.9,25.6,93,82,66,30.37,30.28,1,0,4,0.12
2013-3-11,50.2,41.0,34.1,38.4,34.6,30.3,90,78,61,30.29,30.12,7,0,16,0.00
2013-3-12,54.7,48.6,40.5,52.2,46.1,38.2,96,91,79,30.14,29.70,6,1,22,0.15
2013-3-13,51.6,44.3,36.0,49.9,29.4,16.1,95,59,27,29.76,29.66,13,4,23,0.00
2013-3-14,37.2,31.4,23.2,21.4,11.1,2.3,61,43,32,29.81,29.68,18,6,34,0.03
2013-3-15,40.2,30.1,20.2,25.5,9.3,1.3,68,43,21,29.84,29.61,13,4,29,0.00
2013-3-16,38.5,33.5,28.7,25.6,13.0,2.6,72,45,23,29.83,29.64,9,1,17,0.00
2013-3-17,37.2,31.0,25.1,18.9,7.8,-0.5,65,40,21,30.27,29.83,16,3,25,0.00
2013-3-18,36.6,28.1,19.2,26.1,8.3,-4.5,90,45,28,30.42,30.20,5,0,15,0.00
2013-3-19,36.8,32.6,28.2,35.5,31.0,24.8,95,94,87,30.20,29.55,15,3,26,0.71
2013-3-20,38.0,30.8,24.7,24.7,19.1,14.9,87,63,40,29.79,29.65,16,3,31,0.07
2013-3-21,35.5,30.8,26.1,28.0,21.4,14.0,91,69,45,29.79,29.57,3,0,8,0.05
2013-3-22,38.9,33.1,28.1,27.1,18.3,12.0,90,56,34,29.72,29.56,14,2,24,0.03
2013-3-23,41.9,35.3,28.7,21.3,17.1,12.8,68,49,31,29.75,29.61,20,6,34,0.00
2013-3-24,46.4,37.9,30.7,27.4,21.0,17.2,70,51,33,29.79,29.69,13,2,21,0.00
2013-3-25,42.3,37.3,32.5,35.2,30.2,24.5,84,75,65,29.73,29.47,7,1,15,0.00
2013-3-26,48.3,40.3,33.8,31.4,23.1,15.2,88,54,27,29.74,29.47,14,2,21,0.03
2013-3-27,51.9,43.0,33.4,31.1,21.3,18.1,63,44,27,29.82,29.71,14,4,30,0.00
2013-3-28,46.5,41.9,37.8,34.3,31.1,27.1,87,66,49,29.99,29.82,7,1,20,0.01
2013-3-29,55.9,46.3,38.0,33.2,30.1,24.9,71,55,30,30.02,29.93,12,2,23,0.00
2013-3-30,55.9,46.6,36.9,30.7,24.0,12.8,67,45,18,30.06,29.97,9,1,20,0.00
2013-3-31,58.9,45.7,29.7,41.3,24.4,15.7,86,47,19,30.08,29.71,10,1,24,0.02
2013-4-1,61.0,47.2,35.5,45.1,36.2,8.5,95,69,31,29.77,29.46,14,4,34,0.29
2013-4-2,40.3,34.3,29.0,15.0,10.2,4.8,51,37,23,29.92,29.77,17,4,36,0.00
2013-4-3,44.2,36.5,30.4,17.1,9.8,4.4,56,34,20,30.13,29.91,21,7,36,0.00
2013-4-4,55.9,40.9,29.5,27.6,15.0,7.3,65,38,15,30.26,30.03,10,2,20,0.00
2013-4-5,58.4,46.4,37.8,29.7,24.5,16.1,70,46,21,30.03,29.58,17,3,29,0.00
2013-4-6,45.5,37.9,32.5,24.3,8.3,-2.6,56,31,14,30.29,29.84,16,6,36,0.00
2013-4-7,52.6,41.9,29.5,40.2,27.6,16.8,80,60,25,30.29,29.97,12,2,31,0.00
2013-4-8,64.3,52.4,45.1,42.4,38.9,33.8,89,63,33,30.07,29.91,8,1,16,0.00
2013-4-9,71.6,55.6,47.6,49.9,42.4,36.1,91,64,32,30.05,29.82,17,2,26,0.01
2013-4-10,62.3,51.1,45.1,47.3,43.1,40.3,92,75,51,29.98,29.83,3,0,10,0.12
2013-4-11,51.3,46.8,42.3,45.1,39.7,32.2,95,77,57,30.11,29.78,1,0,10,0.08
2013-4-12,42.3,39.4,36.9,39.3,35.6,29.6,95,87,64,30.13,29.74,7,1,17,0.48
2013-4-13,50.5,42.8,36.2,39.0,36.1,33.2,95,78,55,29.89,29.71,8,2,17,0.02
2013-4-14,51.1,45.6,38.9,39.0,30.3,20.7,88,58,32,30.18,29.89,17,2,29,0.00
2013-4-15,54.4,45.4,34.4,37.2,31.6,26.1,77,59,45,30.36,30.18,2,0,10,0.00
2013-4-16,62.6,51.0,38.6,47.9,39.6,34.8,89,67,43,30.38,30.03,10,2,29,0.00
2013-4-17,66.2,57.8,47.6,50.5,35.6,25.5,79,47,22,30.29,30.03,12,3,24,0.00
2013-4-18,64.3,52.2,39.8,42.9,32.1,23.3,84,51,26,30.40,30.13,6,1,30,0.00
2013-4-19,72.8,62.3,52.2,61.3,56.5,42.9,95,82,59,30.13,29.65,9,3,29,0.00
2013-4-20,63.5,54.2,45.5,60.8,39.5,21.9,93,62,31,30.19,29.58,16,6,25,0.38
2013-4-21,52.0,42.9,35.0,27.8,20.1,16.6,66,41,26,30.66,30.19,13,2,26,0.00
2013-4-22,50.5,42.2,33.2,35.2,29.7,22.0,83,63,34,30.73,30.56,7,0,13,0.00
2013-4-23,42.5,41.5,40.2,41.0,38.0,30.5,96,88,68,30.56,30.08,6,2,16,0.25
2013-4-24,72.1,53.3,42.2,50.0,43.8,40.9,96,74,34,30.08,29.78,10,4,31,0.01
2013-4-25,63.4,55.1,47.4,51.3,35.7,21.9,91,54,21,30.23,29.81,13,3,31,0.03
2013-4-26,54.2,48.9,41.6,41.5,36.5,27.9,88,63,45,30.40,30.23,3,0,8,0.00
2013-4-27,62.4,50.5,37.5,42.9,34.3,28.3,95,59,28,30.40,30.26,2,0,12,0.00
2013-4-28,70.4,54.9,39.8,40.8,32.2,22.5,81,47,23,30.32,30.18,6,1,16,0.00
2013-4-29,69.1,56.4,46.8,44.6,34.9,15.7,88,51,18,30.26,30.17,5,0,15,0.00
2013-4-30,67.8,55.8,43.5,37.6,26.9,12.8,77,38,14,30.33,30.22,2,0,7,0.00
2013-5-1,68.1,54.6,39.7,35.9,30.2,23.4,72,42,21,30.45,30.33,1,0,6,0.00
2013-5-2,75.4,55.9,46.4,46.0,40.7,32.2,85,62,23,30.44,30.33,1,0,10,0.00
2013-5-3,55.7,48.6,43.2,42.9,40.3,39.1,86,73,61,30.50,30.34,2,0,10,0.00
2013-5-4,55.7,47.0,39.3,42.7,37.9,35.8,92,72,48,30.35,30.28,2,0,7,0.00
2013-5-5,59.0,47.7,37.2,41.9,39.2,35.1,93,74,50,30.30,30.23,1,0,7,0.00
2013-5-6,65.8,52.3,38.9,50.1,44.4,35.9,95,76,54,30.27,30.12,1,0,10,0.00
2013-5-7,77.6,62.4,45.8,55.6,49.9,43.3,92,67,43,30.15,30.06,5,0,16,0.00
2013-5-8,69.6,61.4,53.1,64.3,56.7,51.1,95,85,68,30.17,30.01,1,0,10,0.28
2013-5-9,65.5,59.3,56.0,60.5,57.4,54.6,96,93,79,30.01,29.85,0,0,4,1.25
2013-5-10,78.3,65.7,55.3,58.1,55.5,52.3,96,73,46,29.93,29.86,3,0,12,0.01
2013-5-11,72.0,63.0,58.1,60.9,57.2,52.3,92,82,63,29.89,29.66,6,1,20,0.03
2013-5-12,71.5,61.4,51.7,59.3,49.7,27.8,95,70,34,29.78,29.53,17,2,25,0.03
2013-5-13,58.7,51.5,42.1,30.9,26.5,22.2,63,39,27,30.00,29.78,12,2,23,0.00
2013-5-14,57.2,50.4,40.6,33.0,27.8,22.6,67,43,27,30.03,29.95,13,1,17,0.00
2013-5-15,64.8,54.2,44.9,51.5,36.0,26.3,86,53,28,30.04,29.65,6,1,23,0.00
2013-5-16,80.5,69.3,52.3,51.8,38.2,30.0,92,41,17,29.75,29.60,23,4,32,0.01
2013-5-17,78.8,62.8,52.2,43.9,37.7,10.9,70,43,17,30.17,29.76,12,1,22,0.00
2013-5-18,70.6,59.9,49.2,49.1,42.9,35.0,81,56,28,30.28,30.17,3,0,13,0.00
2013-5-19,69.6,57.8,49.6,53.6,49.1,44.8,94,74,46,30.32,30.19,7,0,12,0.07
2013-5-20,81.4,67.0,55.3,65.4,58.9,53.6,96,78,48,30.19,29.87,7,1,15,0.03
2013-5-21,72.7,59.8,51.7,62.3,55.9,50.3,95,88,69,29.95,29.84,1,0,7,0.06
2013-5-22,65.3,56.6,50.5,58.1,53.1,49.1,96,89,73,30.00,29.86,3,0,17,0.05
2013-5-23,76.3,65.7,54.7,66.5,61.5,53.3,96,87,67,29.90,29.78,5,1,23,0.03
2013-5-24,68.9,62.6,50.2,65.0,60.1,48.5,95,92,78,29.78,29.63,7,1,17,0.48
2013-5-25,51.3,48.1,41.9,50.2,46.0,37.7,96,93,85,29.76,29.66,13,4,25,0.33
2013-5-26,58.1,48.5,39.5,41.0,37.2,34.0,90,67,42,30.08,29.70,13,4,31,0.12
2013-5-27,71.6,58.1,45.1,43.6,36.3,27.5,75,50,20,30.14,30.05,13,3,26,0.00
2013-5-28,74.4,60.4,45.5,53.6,46.2,41.2,88,62,35,30.21,30.13,2,0,12,0.00
2013-5-29,71.5,62.8,58.1,64.3,59.2,53.6,95,88,74,30.17,29.96,5,0,10,0.81
2013-5-30,87.4,76.1,64.5,67.1,64.3,61.9,94,70,46,30.05,29.95,8,2,21,0.00
2013-5-31,93.6,81.7,70.8,66.7,63.8,59.2,80,57,33,30.04,29.88,7,1,15,0.00
2013-6-1,92.1,79.3,67.8,65.7,62.3,58.6,79,58,34,29.92,29.80,6,1,17,0.00
2013-6-2,87.0,75.1,66.3,66.6,63.5,61.4,86,69,44,29.83,29.69,7,1,29,0.00
2013-6-3,74.4,67.8,64.1,66.4,63.0,44.1,92,85,48,29.80,29.71,6,1,16,0.41
2013-6-4,70.6,62.3,51.6,46.1,41.6,38.8,66,48,34,30.05,29.77,13,3,22,0.01
2013-6-5,74.3,63.3,52.0,48.9,43.6,36.3,75,51,27,30.15,30.05,5,0,13,0.00
2013-6-6,74.0,63.9,55.0,52.4,48.2,37.5,81,59,31,30.16,30.06,2,0,12,0.00
2013-6-7,59.3,56.2,53.8,57.5,54.1,50.3,96,93,76,30.09,29.78,1,0,10,2.63
2013-6-8,77.7,63.6,54.2,62.7,56.7,51.6,98,80,57,29.96,29.57,10,2,22,0.65
2013-6-9,79.3,69.3,58.7,56.6,53.9,49.6,88,61,37,30.12,29.96,9,1,15,0.00
2013-6-10,69.3,63.5,57.8,59.9,56.3,52.9,94,78,63,30.16,29.98,0,0,4,0.56
2013-6-11,65.5,58.9,55.3,59.1,56.5,53.7,96,92,79,29.99,29.54,8,1,12,1.31
2013-6-12,70.1,62.1,55.9,57.8,53.8,50.4,96,76,53,29.78,29.52,15,3,29,0.02
2013-6-13,66.3,58.2,52.3,57.3,52.5,50.0,94,82,64,29.79,29.63,2,0,8,0.57
2013-6-14,72.3,60.5,52.6,56.5,52.4,48.1,96,77,52,29.72,29.60,5,0,15,1.12
2013-6-15,77.6,68.1,57.0,53.3,45.2,36.5,78,48,25,29.89,29.72,9,2,17,0.00
2013-6-16,76.0,68.3,60.5,61.3,50.8,40.8,88,55,38,29.90,29.68,6,1,15,0.00
2013-6-17,86.3,70.9,61.0,62.9,58.7,53.5,96,69,33,29.86,29.73,13,1,25,1.23
2013-6-18,74.9,63.0,58.1,62.4,58.7,54.1,95,87,58,29.91,29.84,3,0,8,0.61
2013-6-19,73.0,64.0,56.2,57.3,51.2,43.7,95,66,36,30.10,29.86,1,0,8,0.01
2013-6-20,79.9,66.9,54.1,55.8,50.7,42.9,89,60,28,30.22,30.10,5,0,12,0.00
2013-6-21,83.8,70.3,59.0,63.2,57.8,52.7,84,66,43,30.21,30.14,12,0,13,0.00
2013-6-22,84.1,71.8,62.6,61.4,56.2,52.6,75,59,38,30.18,30.07,3,1,15,0.00
2013-6-23,89.9,76.6,65.4,69.3,63.6,56.2,79,65,48,30.11,29.95,6,1,23,0.00
2013-6-24,91.8,80.8,70.4,69.6,67.7,65.4,90,67,43,29.97,29.81,8,2,17,0.02
2013-6-25,91.6,80.0,70.3,68.5,65.2,61.9,89,62,38,29.86,29.67,8,2,16,0.01
2013-6-26,83.4,74.8,67.8,72.3,67.3,64.8,92,78,58,29.80,29.66,5,1,10,0.07
2013-6-27,67.8,64.8,62.4,65.4,62.9,60.7,96,94,88,29.82,29.72,0,0,4,0.08
2013-6-28,79.6,70.1,62.3,74.6,66.3,45.7,100,89,41,29.72,29.46,5,1,21,0.75
2013-6-29,81.8,73.9,70.5,71.1,67.5,41.9,100,82,35,29.67,29.47,5,1,21,0.34
2013-6-30,82.4,74.9,70.3,70.2,68.2,66.3,92,80,66,29.89,29.67,5,1,22,0.03
2013-7-1,83.8,74.8,71.1,73.6,70.8,69.0,95,88,68,30.03,29.89,6,1,20,0.11
2013-7-2,81.8,72.5,62.4,71.9,67.5,59.4,92,85,68,30.16,30.03,3,1,15,0.01
2013-7-3,88.4,76.3,62.3,73.1,67.8,59.6,95,76,56,30.16,30.08,8,2,22,0.00
2013-7-4,92.5,82.2,73.2,74.2,71.4,69.8,91,71,50,30.15,30.04,8,2,13,0.00
2013-7-5,94.3,84.3,76.0,72.7,70.8,68.7,82,65,44,30.10,29.97,6,2,13,0.00
2013-7-6,91.1,82.2,76.5,71.9,69.9,64.5,81,68,48,30.01,29.91,9,3,17,0.00
2013-7-7,92.5,80.5,74.7,74.8,68.8,64.1,91,69,49,29.96,29.84,8,1,16,0.01
2013-7-8,82.9,76.0,66.4,72.5,69.6,63.4,93,81,64,30.00,29.85,6,1,12,0.08
2013-7-9,73.9,68.8,65.6,65.7,64.3,63.1,95,86,72,30.06,29.99,1,0,4,0.01
2013-7-10,85.1,74.9,67.4,72.6,69.1,63.5,94,83,61,30.02,29.75,5,1,17,0.01
2013-7-11,80.0,75.5,71.0,72.8,70.8,68.2,92,86,74,29.86,29.73,2,0,15,0.19
2013-7-12,71.3,69.0,65.6,68.5,61.7,58.1,93,78,66,30.14,29.86,1,0,8,0.01
2013-7-13,77.1,69.5,65.2,69.5,65.5,61.3,95,87,74,30.27,30.15,1,0,6,0.08
2013-7-14,91.0,79.5,70.9,74.2,70.9,64.7,98,77,44,30.26,30.14,6,1,10,0.00
2013-7-15,92.5,81.4,74.4,73.4,70.1,66.7,89,70,43,30.15,30.03,5,1,8,0.00
2013-7-16,93.6,82.2,72.3,70.8,66.8,63.7,83,61,40,30.10,30.04,5,1,7,0.00
2013-7-17,94.9,81.9,71.1,70.9,67.9,62.1,87,65,34,30.12,29.94,5,1,15,0.00
2013-7-18,90.3,83.0,77.0,73.0,70.1,67.3,78,66,49,29.95,29.88,6,1,15,0.00
2013-7-19,97.1,86.1,76.7,75.3,72.1,68.1,86,65,40,29.88,29.66,9,2,24,0.00
2013-7-20,94.4,83.6,76.5,74.5,72.5,68.2,84,70,46,29.74,29.58,9,1,20,0.00
2013-7-21,84.9,76.7,70.8,67.9,63.6,59.7,86,65,46,29.93,29.74,6,1,12,0.00
2013-7-22,81.1,73.1,67.6,67.8,66.2,64.8,92,80,58,29.96,29.83,1,0,6,0.00
2013-7-23,82.8,73.1,70.1,76.4,70.6,66.7,100,92,73,29.83,29.48,6,0,20,1.46
2013-7-24,84.7,76.7,69.8,74.9,64.9,43.1,100,70,37,29.89,29.53,7,2,17,0.01
2013-7-25,69.8,62.1,59.9,59.8,55.3,48.4,95,80,57,30.05,29.89,2,0,12,0.43
2013-7-26,68.8,64.2,60.7,65.8,61.7,36.4,100,92,38,30.01,29.89,12,1,20,0.69
2013-7-27,84.4,71.6,62.6,65.4,62.1,58.8,93,74,43,30.03,29.96,5,1,15,0.01
2013-7-28,78.8,70.6,67.3,68.7,66.5,64.0,94,87,70,29.97,29.93,0,0,6,0.01
2013-7-29,80.5,72.9,66.1,71.6,67.8,64.3,99,85,61,29.99,29.92,3,0,8,0.37
2013-7-30,81.2,72.5,63.4,66.2,58.2,52.4,94,63,37,30.05,29.98,9,2,16,0.01
2013-7-31,81.9,72.0,64.0,62.6,58.7,55.4,82,64,44,30.09,29.99,2,0,7,0.00
2013-8-1,80.9,70.3,64.0,63.9,60.7,58.3,91,73,49,30.00,29.84,5,0,17,0.00
2013-8-2,82.1,71.6,64.0,67.1,61.6,57.0,95,73,45,29.84,29.75,7,1,16,0.18
2013-8-3,77.6,71.4,66.7,63.3,61.6,58.8,87,72,57,29.82,29.73,9,1,15,0.00
2013-8-4,79.9,69.4,61.3,61.9,55.3,50.5,77,62,36,29.84,29.72,9,2,20,0.01
2013-8-5,74.7,65.3,56.5,52.4,46.6,38.1,82,55,27,30.00,29.84,9,3,21,0.01
2013-8-6,79.0,65.7,53.1,54.3,49.7,45.0,78,58,36,30.11,30.00,2,0,7,0.00
2013-8-7,68.4,60.7,58.4,59.5,56.4,53.6,93,86,67,30.15,30.10,1,0,4,0.00
2013-8-10,80.7,71.9,66.0,54.3,52.5,51.5,61,51,37,29.95,29.85,3,1,16,0.00
2013-8-11,78.3,68.8,57.0,57.5,52.8,47.3,83,59,37,30.04,29.95,3,0,12,0.00
2013-8-12,81.2,71.6,63.1,63.8,57.7,49.6,85,64,36,29.98,29.87,5,0,13,0.00
2013-8-13,74.0,68.9,65.5,66.3,62.9,60.3,88,81,63,29.87,29.64,1,0,7,0.01
2013-8-14,73.0,66.7,61.0,63.0,53.2,47.9,90,63,43,29.92,29.62,12,3,25,0.00
2013-8-15,77.0,65.6,56.0,53.3,49.6,43.1,79,59,33,30.07,29.92,6,1,16,0.00
2013-8-16,77.9,68.7,60.1,56.5,52.3,49.0,77,57,38,30.15,30.07,6,1,15,0.00
2013-8-17,78.7,69.5,60.7,58.5,55.1,51.2,79,61,40,30.24,30.15,5,0,7,0.00
2013-8-18,81.2,69.3,59.9,61.4,58.2,53.0,89,70,39,30.23,30.09,1,0,7,0.00
2013-8-19,82.2,71.5,62.1,61.8,57.8,54.2,82,64,40,30.09,30.09,7,1,12,0.00
2013-8-20,85.9,75.2,65.8,62.8,60.0,54.8,80,61,36,30.09,30.09,7,1,8,0.00
2013-8-21,88.4,76.1,66.1,63.7,60.4,57.8,76,60,38,30.09,30.09,6,0,8,0.00